Time;durP1;ratioP1;P1;durP2;ratioP2;P2;SDS_P1;SDS_P2;PMS_P1;PMS_P2;Temp;Humidity;BMP_temperature;BMP_pressure;BME280_temperature;BME280_humidity;BME280_pressure;Samples;Min_cycle;Max_cycle;Signal;HPM_P1;HPM_P2
2021/04/13 00:02:23;;;;;;;3.83;3.43;;;4.70;99.90;;;;;;5007424;28;21044;-55
2021/04/13 00:04:59;;;;;;;3.77;3.47;;;4.70;99.90;;;;;;5030113;28;20487;-57
2021/04/13 00:07:28;;;;;;;3.40;3.10;;;4.60;99.90;;;;;;5036178;28;20429;-58
2021/04/13 00:09:57;;;;;;;3.97;3.17;;;4.60;99.90;;;;;;5036078;28;20405;-58
2021/04/13 00:12:32;;;;;;;3.80;3.50;;;4.60;99.90;;;;;;5044493;28;20430;-57
2021/04/13 00:15:03;;;;;;;2.70;2.50;;;4.60;99.90;;;;;;5034185;28;20416;-59
2021/04/13 00:17:32;;;;;;;4.13;3.03;;;4.60;99.90;;;;;;5034335;28;20415;-57
2021/04/13 00:20:27;;;;;;;4.33;3.80;;;4.50;99.90;;;;;;5034734;28;20973;-59
2021/04/13 00:22:54;;;;;;;4.30;3.17;;;4.50;99.90;;;;;;5033874;28;20422;-60
2021/04/13 00:25:29;;;;;;;3.70;3.20;;;4.40;99.90;;;;;;5033862;28;20410;-60
2021/04/13 00:27:55;;;;;;;4.10;3.20;;;4.40;99.90;;;;;;5034002;28;20421;-58
2021/04/13 00:30:25;;;;;;;3.47;3.20;;;4.30;99.90;;;;;;5033601;28;20417;-61
2021/04/13 00:33:00;;;;;;;3.70;3.40;;;4.30;99.90;;;;;;5033756;28;20187;-58
2021/04/13 00:35:33;;;;;;;4.33;3.10;;;4.30;99.90;;;;;;5033211;28;20470;-59
2021/04/13 00:38:28;;;;;;;5.43;4.33;;;4.30;99.90;;;;;;5033566;28;20395;-57
2021/04/13 00:40:54;;;;;;;3.57;3.27;;;4.30;99.90;;;;;;5033834;28;20488;-60
2021/04/13 00:43:24;;;;;;;4.60;4.20;;;4.30;99.90;;;;;;5028314;28;20429;-62
2021/04/13 00:45:50;;;;;;;5.33;4.33;;;4.30;99.90;;;;;;5027455;28;21263;-60
2021/04/13 00:48:29;;;;;;;6.23;4.73;;;4.30;99.90;;;;;;5033970;28;20406;-55
2021/04/13 00:51:02;;;;;;;5.83;4.43;;;4.40;99.90;;;;;;5029714;28;20440;-60
2021/04/13 00:53:32;;;;;;;9.30;5.27;;;4.40;99.90;;;;;;5033594;28;20455;-60
2021/04/13 00:56:08;;;;;;;6.27;5.67;;;4.40;99.90;;;;;;5034017;28;20410;-60
2021/04/13 00:58:41;;;;;;;4.63;4.23;;;4.50;99.90;;;;;;5033766;28;20747;-58
2021/04/13 01:01:13;;;;;;;4.27;3.87;;;4.50;99.90;;;;;;5033273;28;20445;-57
2021/04/13 01:04:37;;;;;;;4.30;3.90;;;4.60;99.90;;;;;;5032711;28;20847;-57
2021/04/13 01:07:26;;;;;;;5.17;4.30;;;4.60;99.90;;;;;;4976026;28;20945;-58
2021/04/13 01:09:57;;;;;;;5.33;4.83;;;4.50;99.90;;;;;;5033174;28;20449;-59
2021/04/13 01:12:26;;;;;;;5.27;4.77;;;4.60;99.90;;;;;;5034337;28;20434;-60
2021/04/13 01:14:53;;;;;;;5.47;5.03;;;4.60;99.90;;;;;;5021154;28;20418;-60
2021/04/13 01:17:21;;;;;;;5.40;4.90;;;4.70;99.90;;;;;;5033030;28;20421;-60
2021/04/13 01:19:47;;;;;;;5.17;4.77;;;4.70;99.90;;;;;;5032914;28;20453;-60
2021/04/13 01:22:34;;;;;;;5.40;4.90;;;4.70;99.90;;;;;;5032787;28;20958;-61
2021/04/13 01:25:16;;;;;;;5.00;4.40;;;4.70;99.90;;;;;;5032991;28;20562;-61
2021/04/13 01:28:00;;;;;;;6.03;5.40;;;4.70;99.90;;;;;;5033156;28;20408;-61
2021/04/13 01:30:42;;;;;;;7.87;6.27;;;4.70;99.90;;;;;;5033158;28;20402;-64
2021/04/13 01:33:18;;;;;;;7.30;6.60;;;4.60;99.90;;;;;;5025847;28;20784;-58
2021/04/13 01:35:49;;;;;;;7.57;6.70;;;4.70;99.90;;;;;;5030876;28;20466;-59
2021/04/13 01:38:41;;;;;;;9.03;7.10;;;4.70;99.90;;;;;;5036184;28;20401;-56
2021/04/13 01:41:31;;;;;;;7.70;6.97;;;4.70;99.90;;;;;;5035865;28;20465;-60
2021/04/13 01:43:55;;;;;;;9.17;8.37;;;4.60;99.90;;;;;;5035724;28;20434;-60
2021/04/13 01:46:21;;;;;;;8.67;7.87;;;4.50;99.90;;;;;;5036639;28;20402;-61
2021/04/13 01:48:47;;;;;;;9.87;8.90;;;4.50;99.90;;;;;;5036896;28;20456;-61
2021/04/13 01:51:13;;;;;;;9.77;8.80;;;4.50;99.90;;;;;;5036641;28;20796;-62
2021/04/13 01:53:42;;;;;;;12.57;10.73;;;4.40;99.90;;;;;;5037518;28;20198;-60
2021/04/13 01:56:28;;;;;;;13.33;12.03;;;4.30;99.90;;;;;;5025127;28;20926;-61
2021/04/13 01:59:08;;;;;;;14.00;12.23;;;4.20;99.90;;;;;;5036622;28;20398;-59
2021/04/13 02:01:42;;;;;;;12.90;11.60;;;4.20;99.90;;;;;;5032853;28;20402;-60
2021/04/13 02:04:12;;;;;;;14.23;12.73;;;4.20;99.90;;;;;;5044943;28;20456;-60
2021/04/13 02:07:07;;;;;;;13.83;12.33;;;4.20;99.90;;;;;;5056446;28;20386;-56
2021/04/13 02:09:45;;;;;;;16.87;15.17;;;4.20;99.90;;;;;;5056424;28;20423;-60
2021/04/13 02:12:32;;;;;;;13.47;12.07;;;4.20;99.90;;;;;;5049149;28;20444;-60
2021/04/13 02:15:35;;;;;;;15.03;13.47;;;4.20;99.90;;;;;;5035335;28;20525;-60
2021/04/13 02:18:06;;;;;;;13.63;12.33;;;4.20;99.90;;;;;;5035806;28;20501;-55
2021/04/13 02:20:35;;;;;;;12.70;11.40;;;4.10;99.90;;;;;;5035385;28;20456;-59
2021/04/13 02:23:04;;;;;;;18.03;12.67;;;4.10;99.90;;;;;;5035837;28;20445;-60
2021/04/13 02:25:33;;;;;;;13.53;12.30;;;4.10;99.90;;;;;;5035711;28;20402;-60
2021/04/13 02:28:01;;;;;;;13.80;11.93;;;4.00;99.90;;;;;;5036980;28;20413;-61
2021/04/13 02:30:37;;;;;;;14.57;13.17;;;3.90;99.90;;;;;;5035853;28;20475;-61
2021/04/13 02:33:19;;;;;;;13.50;12.10;;;3.80;99.90;;;;;;5035609;28;20433;-61
2021/04/13 02:35:46;;;;;;;14.87;13.33;;;3.70;99.90;;;;;;5020530;28;21136;-62
2021/04/13 02:38:17;;;;;;;14.40;12.20;;;3.70;99.90;;;;;;5030484;28;20419;-63
2021/04/13 02:41:11;;;;;;;12.97;11.50;;;3.70;99.90;;;;;;5030906;28;21024;-61
2021/04/13 02:43:43;;;;;;;12.03;10.70;;;3.70;99.90;;;;;;5015439;28;20504;-59
2021/04/13 02:46:15;;;;;;;11.93;10.53;;;3.80;99.90;;;;;;5034586;28;20491;-60
2021/04/13 02:48:44;;;;;;;12.40;10.40;;;3.60;99.90;;;;;;5033837;28;20410;-61
2021/04/13 02:51:13;;;;;;;11.83;10.60;;;3.60;99.90;;;;;;5035208;28;20762;-62
2021/04/13 02:53:57;;;;;;;11.10;10.07;;;3.70;99.90;;;;;;5024852;28;20792;-62
2021/04/13 02:56:32;;;;;;;14.73;10.67;;;3.70;99.90;;;;;;5035374;28;20759;-60
2021/04/13 02:59:26;;;;;;;11.73;10.53;;;3.70;99.90;;;;;;5035455;28;20957;-61
2021/04/13 03:02:00;;;;;;;12.03;10.83;;;3.70;99.90;;;;;;5027436;28;20429;-59
2021/04/13 03:04:28;;;;;;;14.17;11.17;;;3.80;99.90;;;;;;5034675;28;20428;-61
2021/04/13 03:06:56;;;;;;;11.20;9.83;;;3.80;99.90;;;;;;5035362;28;20809;-61
2021/04/13 03:09:27;;;;;;;10.73;9.10;;;3.70;99.90;;;;;;5035306;28;20403;-61
2021/04/13 03:12:06;;;;;;;11.17;10.07;;;3.70;99.90;;;;;;5034903;28;20446;-60
2021/04/13 03:14:42;;;;;;;13.80;10.33;;;3.80;99.90;;;;;;5022789;28;20448;-63
2021/04/13 03:17:18;;;;;;;9.83;8.73;;;3.90;99.90;;;;;;5032893;28;20535;-61
2021/04/13 03:19:46;;;;;;;13.73;11.13;;;4.10;99.90;;;;;;5034385;28;20449;-61
2021/04/13 03:22:15;;;;;;;11.23;10.07;;;4.10;99.90;;;;;;5017014;28;20427;-58
2021/04/13 03:24:43;;;;;;;10.70;9.60;;;4.10;99.90;;;;;;5015489;28;20419;-61
2021/04/13 03:27:14;;;;;;;11.37;9.77;;;4.10;99.90;;;;;;5014872;28;20406;-61
2021/04/13 03:29:50;;;;;;;10.70;9.67;;;4.10;99.90;;;;;;5014712;28;20407;-61
2021/04/13 03:32:19;;;;;;;10.97;9.90;;;4.20;99.90;;;;;;5015308;28;20422;-60
2021/04/13 03:34:45;;;;;;;11.80;9.93;;;4.20;99.90;;;;;;5034603;28;20488;-60
2021/04/13 03:37:14;;;;;;;10.10;8.70;;;4.20;99.90;;;;;;5016891;28;20422;-57
2021/04/13 03:39:43;;;;;;;9.90;8.90;;;4.10;99.90;;;;;;5034509;28;20445;-61
2021/04/13 03:42:16;;;;;;;8.70;7.90;;;4.10;99.90;;;;;;5034674;28;20484;-60
2021/04/13 03:44:43;;;;;;;10.53;9.53;;;4.00;99.90;;;;;;5034176;28;20417;-61
2021/04/13 03:47:12;;;;;;;11.37;9.90;;;4.00;99.90;;;;;;5034587;28;20402;-60
2021/04/13 03:49:41;;;;;;;11.33;9.37;;;3.90;99.90;;;;;;5033213;28;20525;-60
2021/04/13 03:52:14;;;;;;;10.30;9.30;;;3.90;99.90;;;;;;5034304;28;20855;-60
2021/04/13 03:54:41;;;;;;;11.57;8.77;;;3.90;99.90;;;;;;5023272;28;20418;-62
2021/04/13 03:57:07;;;;;;;9.57;8.57;;;3.80;99.90;;;;;;5032559;28;20419;-58
2021/04/13 03:59:44;;;;;;;10.50;8.50;;;3.80;99.90;;;;;;5034951;28;20444;-60
2021/04/13 04:02:10;;;;;;;8.73;7.93;;;3.80;99.90;;;;;;5033957;28;20438;-61
2021/04/13 04:04:42;;;;;;;9.90;8.30;;;3.80;99.90;;;;;;5033935;28;20418;-60
2021/04/13 04:07:38;;;;;;;8.93;8.00;;;3.90;99.90;;;;;;5033948;28;20401;-61
2021/04/13 04:10:41;;;;;;;9.20;8.30;;;3.90;99.90;;;;;;5034157;28;20818;-60
2021/04/13 04:13:12;;;;;;;8.27;7.47;;;3.90;99.90;;;;;;5033017;28;20563;-60
2021/04/13 04:15:44;;;;;;;8.10;7.30;;;3.70;99.90;;;;;;5032240;28;20412;-61
2021/04/13 04:18:29;;;;;;;8.33;7.53;;;3.60;99.90;;;;;;5034037;28;20421;-61
2021/04/13 04:20:56;;;;;;;10.27;9.23;;;3.50;99.90;;;;;;5033564;28;20952;-59
2021/04/13 04:23:33;;;;;;;8.80;8.00;;;3.40;99.90;;;;;;5033808;28;20452;-61
2021/04/13 04:26:08;;;;;;;8.93;7.90;;;3.40;99.90;;;;;;5033874;28;20406;-61
2021/04/13 04:28:40;;;;;;;9.67;8.77;;;3.30;99.90;;;;;;5034304;28;20451;-60
2021/04/13 04:31:33;;;;;;;9.07;8.17;;;3.30;99.90;;;;;;5034431;28;20421;-59
2021/04/13 04:34:00;;;;;;;9.30;8.40;;;3.30;99.90;;;;;;5029886;28;20421;-59
2021/04/13 04:36:31;;;;;;;12.20;7.80;;;3.40;99.90;;;;;;5027414;28;20505;-60
2021/04/13 04:39:31;;;;;;;10.63;8.43;;;3.40;99.90;;;;;;5033352;28;20432;-60
2021/04/13 04:42:10;;;;;;;9.03;8.23;;;3.40;99.90;;;;;;5016829;28;20464;-59
2021/04/13 04:44:35;;;;;;;11.57;10.43;;;3.30;99.90;;;;;;5019435;28;20651;-61
2021/04/13 04:47:01;;;;;;;10.43;9.47;;;3.20;99.90;;;;;;5015780;28;20858;-59
2021/04/13 04:49:37;;;;;;;11.27;9.20;;;3.10;99.90;;;;;;5033436;28;20201;-61
2021/04/13 04:52:02;;;;;;;13.13;10.43;;;3.10;99.90;;;;;;5033283;28;20169;-59
2021/04/13 04:54:28;;;;;;;11.67;9.40;;;3.10;99.90;;;;;;5014998;28;20392;-61
2021/04/13 04:56:54;;;;;;;11.07;9.97;;;3.10;99.90;;;;;;5013957;28;20197;-61
2021/04/13 04:59:19;;;;;;;12.33;11.23;;;3.10;99.90;;;;;;5030080;28;20540;-60
2021/04/13 05:01:46;;;;;;;12.33;10.70;;;3.20;99.90;;;;;;5033354;28;20172;-60
2021/04/13 05:04:11;;;;;;;11.63;10.53;;;3.20;99.90;;;;;;5033139;28;20198;-58
2021/04/13 05:06:37;;;;;;;11.47;9.50;;;3.10;99.90;;;;;;5033217;28;20410;-60
2021/04/13 05:09:03;;;;;;;12.60;10.20;;;3.10;99.90;;;;;;5033713;28;20175;-61
2021/04/13 05:11:29;;;;;;;10.73;9.50;;;3.10;99.90;;;;;;5033937;28;20175;-60
2021/04/13 05:13:54;;;;;;;11.37;10.03;;;3.10;99.90;;;;;;5035392;28;20259;-60
2021/04/13 05:16:22;;;;;;;13.53;11.70;;;3.10;99.90;;;;;;5027113;28;21312;-57
2021/04/13 05:18:48;;;;;;;10.83;9.43;;;3.20;99.90;;;;;;5037996;28;20537;-60
2021/04/13 05:21:14;;;;;;;10.53;9.50;;;3.10;99.90;;;;;;5027708;28;20468;-61
2021/04/13 05:23:39;;;;;;;12.60;11.40;;;3.00;99.90;;;;;;5017191;28;20425;-61
2021/04/13 05:26:06;;;;;;;10.80;9.37;;;3.10;99.90;;;;;;5017342;28;20407;-61
2021/04/13 05:28:33;;;;;;;10.63;9.43;;;3.10;99.90;;;;;;5027151;28;20200;-60
2021/04/13 05:30:59;;;;;;;12.83;9.60;;;3.00;99.90;;;;;;5036959;28;20432;-61
2021/04/13 05:33:25;;;;;;;10.33;9.20;;;2.90;99.90;;;;;;5036770;28;20565;-59
2021/04/13 05:35:51;;;;;;;10.23;9.20;;;2.90;99.90;;;;;;5036660;28;20416;-59
2021/04/13 05:38:25;;;;;;;10.27;9.30;;;3.10;99.90;;;;;;5036708;28;20434;-60
2021/04/13 05:40:51;;;;;;;10.37;9.37;;;3.30;99.90;;;;;;5017240;28;20469;-60
2021/04/13 05:43:17;;;;;;;11.97;10.20;;;3.30;99.90;;;;;;5016764;28;20435;-60
2021/04/13 05:45:48;;;;;;;12.17;9.67;;;3.40;99.90;;;;;;5031224;28;20165;-60
2021/04/13 05:48:20;;;;;;;9.03;8.23;;;3.50;99.90;;;;;;5036498;28;20456;-60
2021/04/13 05:50:46;;;;;;;15.50;9.07;;;3.70;99.90;;;;;;5037045;28;20396;-61
2021/04/13 05:53:13;;;;;;;10.20;9.13;;;3.80;99.90;;;;;;5036827;28;20490;-59
2021/04/13 05:55:40;;;;;;;13.07;11.23;;;3.90;99.90;;;;;;5025486;28;20832;-60
2021/04/13 05:58:12;;;;;;;11.30;10.30;;;3.90;99.90;;;;;;5038199;28;20433;-59
2021/04/13 06:00:38;;;;;;;9.73;8.83;;;4.10;99.90;;;;;;5031523;28;20508;-62
2021/04/13 06:03:04;;;;;;;10.23;9.23;;;4.10;99.90;;;;;;5029324;28;20850;-61
2021/04/13 06:05:31;;;;;;;12.50;9.93;;;4.30;99.90;;;;;;5036081;28;20487;-61
2021/04/13 06:07:57;;;;;;;13.70;10.67;;;4.40;99.90;;;;;;5036152;28;20517;-61
2021/04/13 06:10:25;;;;;;;11.47;10.30;;;4.50;99.90;;;;;;5036165;28;20418;-60
2021/04/13 06:12:52;;;;;;;10.33;9.33;;;4.70;99.90;;;;;;5031141;28;20522;-61
2021/04/13 06:15:20;;;;;;;11.80;10.20;;;4.80;99.90;;;;;;5015870;28;20818;-62
2021/04/13 06:17:46;;;;;;;13.80;10.73;;;4.90;99.90;;;;;;5015995;28;20403;-62
2021/04/13 06:20:12;;;;;;;11.10;10.00;;;5.00;99.90;;;;;;5016083;28;20451;-60
2021/04/13 06:22:38;;;;;;;10.57;9.57;;;5.10;99.90;;;;;;5015947;28;20187;-61
2021/04/13 06:25:04;;;;;;;10.50;9.50;;;5.20;99.90;;;;;;5022265;28;20902;-61
2021/04/13 06:27:30;;;;;;;11.37;10.27;;;5.30;99.90;;;;;;5036121;28;20179;-61
2021/04/13 06:29:55;;;;;;;10.37;9.37;;;5.40;99.90;;;;;;5035962;28;20398;-60
2021/04/13 06:32:24;;;;;;;11.47;10.00;;;5.50;99.90;;;;;;5017990;28;20667;-61
2021/04/13 06:34:50;;;;;;;11.73;10.60;;;5.60;99.90;;;;;;5022792;28;20220;-59
2021/04/13 06:37:15;;;;;;;12.23;10.93;;;5.60;99.90;;;;;;5033910;28;20805;-58
2021/04/13 06:39:41;;;;;;;11.53;10.43;;;5.70;99.90;;;;;;5035684;28;20682;-59
2021/04/13 06:42:15;;;;;;;12.00;10.80;;;5.50;99.90;;;;;;5017227;28;20640;-59
2021/04/13 06:44:48;;;;;;;16.53;11.90;;;5.60;99.90;;;;;;5022180;28;20175;-60
2021/04/13 06:47:55;;;;;;;12.87;11.43;;;5.80;99.90;;;;;;5035661;28;20469;-61
2021/04/13 06:50:55;;;;;;;12.47;11.30;;;5.90;99.90;;;;;;4992971;28;20477;-61
2021/04/13 06:53:47;;;;;;;13.60;11.20;;;6.10;99.90;;;;;;4994143;28;20436;-62
2021/04/13 06:56:31;;;;;;;12.00;10.80;;;6.00;99.90;;;;;;5007927;28;20419;-61
2021/04/13 06:59:38;;;;;;;14.27;12.77;;;5.90;99.90;;;;;;5028856;28;20778;-60
2021/04/13 07:02:27;;;;;;;14.80;12.10;;;6.10;99.90;;;;;;5011766;28;20449;-58
2021/04/13 07:05:15;;;;;;;13.23;12.03;;;6.10;99.90;;;;;;5033584;28;20399;-58
2021/04/13 07:07:58;;;;;;;12.03;10.90;;;6.10;99.90;;;;;;5034568;28;20398;-59
2021/04/13 07:10:33;;;;;;;14.20;12.77;;;6.30;99.90;;;;;;5035137;28;20883;-59
2021/04/13 07:13:28;;;;;;;12.93;11.73;;;6.10;99.90;;;;;;5017119;28;20432;-58
2021/04/13 07:16:05;;;;;;;13.90;12.50;;;6.10;99.90;;;;;;5032946;28;20446;-58
2021/04/13 07:18:38;;;;;;;14.73;12.87;;;6.00;99.90;;;;;;5033510;28;20412;-59
2021/04/13 07:21:13;;;;;;;13.37;12.17;;;5.90;99.90;;;;;;5034003;28;20560;-59
2021/04/13 07:23:59;;;;;;;14.27;12.77;;;6.20;99.90;;;;;;5034377;28;20414;-53
2021/04/13 07:26:46;;;;;;;16.20;14.47;;;6.50;99.90;;;;;;5033899;28;20398;-56
2021/04/13 07:29:19;;;;;;;13.60;12.20;;;6.70;99.90;;;;;;5034488;28;20390;-55
2021/04/13 07:32:00;;;;;;;14.73;13.30;;;6.80;99.90;;;;;;5035082;28;20865;-58
2021/04/13 07:34:26;;;;;;;14.40;12.90;;;6.90;99.90;;;;;;5034450;28;20537;-55
2021/04/13 07:37:07;;;;;;;13.13;11.93;;;6.90;99.90;;;;;;5034245;28;20406;-56
2021/04/13 07:39:35;;;;;;;13.03;11.73;;;6.70;99.90;;;;;;5034476;28;20435;-55
2021/04/13 07:42:12;;;;;;;12.77;11.53;;;6.90;99.90;;;;;;5034176;28;20892;-56
2021/04/13 07:44:56;;;;;;;13.90;12.60;;;7.20;99.90;;;;;;5034328;28;20767;-58
2021/04/13 07:47:36;;;;;;;14.33;12.93;;;7.30;99.90;;;;;;5034899;28;20387;-61
2021/04/13 07:50:03;;;;;;;13.87;12.47;;;7.40;99.90;;;;;;5034451;28;20390;-62
2021/04/13 07:52:42;;;;;;;14.43;13.13;;;7.30;99.90;;;;;;5016644;28;20862;-57
2021/04/13 07:55:28;;;;;;;17.90;13.87;;;7.40;99.90;;;;;;5033496;28;20421;-59
2021/04/13 07:57:56;;;;;;;14.13;12.80;;;7.50;99.90;;;;;;5012838;28;20497;-54
2021/04/13 08:00:33;;;;;;;17.30;14.50;;;7.40;99.90;;;;;;5034013;28;20441;-58
2021/04/13 08:03:25;;;;;;;16.00;14.30;;;7.50;99.90;;;;;;5046337;28;20453;-57
2021/04/13 08:05:54;;;;;;;15.83;14.23;;;7.70;99.90;;;;;;5054000;28;20423;-59
2021/04/13 08:08:25;;;;;;;16.17;14.43;;;7.80;99.90;;;;;;5053732;28;20771;-59
2021/04/13 08:10:50;;;;;;;14.47;13.10;;;8.00;99.90;;;;;;5054122;28;20920;-59
2021/04/13 08:13:29;;;;;;;16.30;14.67;;;7.80;99.90;;;;;;5053205;28;20421;-59
2021/04/13 08:15:55;;;;;;;13.73;12.43;;;7.60;99.90;;;;;;5054112;28;20527;-59
2021/04/13 08:18:27;;;;;;;14.17;12.77;;;7.20;99.90;;;;;;5038581;28;20553;-58
2021/04/13 08:21:15;;;;;;;12.33;11.23;;;7.50;99.90;;;;;;5034475;28;20434;-59
2021/04/13 08:23:41;;;;;;;12.57;11.30;;;7.60;99.90;;;;;;5033360;28;20472;-57
2021/04/13 08:26:23;;;;;;;11.73;10.73;;;7.40;99.90;;;;;;5033613;28;20395;-59
2021/04/13 08:29:02;;;;;;;11.53;10.60;;;7.40;99.90;;;;;;5033351;28;20853;-58
2021/04/13 08:34:46;;;;;;;14.87;13.37;;;7.60;99.90;;;;;;5033603;28;20374;-58
2021/04/13 08:37:47;;;;;;;15.17;13.77;;;7.40;99.90;;;;;;5033298;28;20401;-59
2021/04/13 08:40:13;;;;;;;15.27;13.77;;;7.60;99.90;;;;;;5026006;28;20446;-57
2021/04/13 08:43:07;;;;;;;14.07;12.70;;;7.70;99.90;;;;;;5013854;28;20430;-58
2021/04/13 08:45:52;;;;;;;14.00;12.70;;;7.60;99.90;;;;;;5013760;28;20459;-58
2021/04/13 08:48:37;;;;;;;16.00;14.30;;;7.40;99.90;;;;;;5027240;28;20485;-57
2021/04/13 08:51:37;;;;;;;14.40;13.00;;;7.50;99.90;;;;;;5034019;28;20895;-58
2021/04/13 08:54:18;;;;;;;14.00;12.70;;;7.60;99.90;;;;;;5033355;28;20434;-59
2021/04/13 08:57:15;;;;;;;14.37;13.07;;;7.80;99.90;;;;;;5033760;28;20374;-59
2021/04/13 08:59:41;;;;;;;15.30;13.90;;;7.90;99.90;;;;;;5015411;28;21003;-58
2021/04/13 09:02:22;;;;;;;13.90;12.53;;;7.60;99.90;;;;;;5034030;28;20526;-58
2021/04/13 09:05:01;;;;;;;14.47;13.17;;;7.60;99.90;;;;;;5033433;28;20664;-59
2021/04/13 09:07:30;;;;;;;12.33;11.23;;;8.10;99.90;;;;;;5033184;28;20378;-59
2021/04/13 09:10:29;;;;;;;13.60;12.40;;;8.10;99.90;;;;;;5032366;28;20413;-58
2021/04/13 09:13:22;;;;;;;10.60;9.67;;;7.70;99.50;;;;;;5032893;28;20430;-57
2021/04/13 09:16:06;;;;;;;10.33;9.40;;;8.10;98.30;;;;;;5033587;28;20471;-58
2021/04/13 09:18:46;;;;;;;9.87;9.07;;;8.10;96.90;;;;;;5032980;28;20391;-57
2021/04/13 09:21:25;;;;;;;9.90;8.93;;;8.40;96.30;;;;;;5033219;28;20953;-58
2021/04/13 09:24:11;;;;;;;10.17;8.67;;;8.50;96.70;;;;;;5032886;28;20418;-57
2021/04/13 09:26:56;;;;;;;10.80;9.80;;;8.50;95.10;;;;;;5033247;28;20803;-60
2021/04/13 09:29:27;;;;;;;10.73;8.77;;;8.20;94.50;;;;;;5032789;28;20394;-56
2021/04/13 09:31:52;;;;;;;9.53;8.43;;;8.10;94.60;;;;;;5033313;28;20824;-58
2021/04/13 09:34:30;;;;;;;10.23;9.30;;;8.30;95.40;;;;;;5033302;28;20403;-56
2021/04/13 09:37:17;;;;;;;11.97;10.77;;;8.20;95.20;;;;;;5033604;28;20164;-58
2021/04/13 09:40:04;;;;;;;11.50;10.40;;;8.20;96.00;;;;;;5032900;28;20445;-58
2021/04/13 09:42:46;;;;;;;12.37;11.17;;;8.10;97.20;;;;;;5033201;28;20506;-58
2021/04/13 09:45:24;;;;;;;12.60;11.50;;;8.10;97.00;;;;;;5032867;28;20505;-54
2021/04/13 09:48:13;;;;;;;11.43;10.10;;;8.10;96.30;;;;;;5033404;28;20493;-56
2021/04/13 09:51:25;;;;;;;11.10;10.10;;;8.00;95.90;;;;;;5033116;28;20954;-58
2021/04/13 09:54:10;;;;;;;10.73;9.73;;;7.70;95.50;;;;;;5026620;28;20525;-53
2021/04/13 09:57:11;;;;;;;11.93;10.70;;;7.60;96.30;;;;;;5033290;28;20481;-59
2021/04/13 10:00:07;;;;;;;12.30;11.30;;;7.90;95.80;;;;;;5035898;28;20535;-59
2021/04/13 10:02:52;;;;;;;10.83;9.93;;;8.30;95.40;;;;;;5036582;28;20475;-60
2021/04/13 10:05:24;;;;;;;10.63;9.73;;;8.60;94.60;;;;;;5039229;28;20389;-60
2021/04/13 10:07:55;;;;;;;11.33;10.13;;;8.80;94.60;;;;;;5035907;28;20386;-60
2021/04/13 10:10:24;;;;;;;11.43;10.43;;;8.80;94.00;;;;;;5018762;28;20429;-57
2021/04/13 10:13:05;;;;;;;11.43;10.43;;;9.10;93.20;;;;;;5036488;28;20448;-59
2021/04/13 10:15:43;;;;;;;11.23;10.20;;;9.60;92.50;;;;;;5036200;28;20464;-56
2021/04/13 10:18:30;;;;;;;11.37;10.37;;;9.90;91.80;;;;;;5035720;28;20408;-58
2021/04/13 10:21:14;;;;;;;12.00;10.00;;;9.70;90.90;;;;;;5035958;28;20459;-59
2021/04/13 10:24:13;;;;;;;10.40;9.60;;;9.40;91.60;;;;;;5035439;28;20425;-57
2021/04/13 10:26:57;;;;;;;11.00;9.90;;;9.00;92.10;;;;;;5036058;28;20396;-58
2021/04/13 10:29:52;;;;;;;10.10;9.00;;;9.20;92.70;;;;;;5035487;28;20377;-55
2021/04/13 10:32:31;;;;;;;10.30;9.23;;;9.20;91.90;;;;;;5035851;28;20412;-55
2021/04/13 10:35:11;;;;;;;9.43;8.53;;;9.10;91.00;;;;;;5035750;28;20378;-55
2021/04/13 10:37:56;;;;;;;8.23;7.53;;;8.80;91.70;;;;;;5037053;28;20382;-59
2021/04/13 10:40:50;;;;;;;9.80;8.93;;;8.80;90.80;;;;;;5034747;28;20534;-57
2021/04/13 10:43:27;;;;;;;8.87;8.03;;;9.10;90.90;;;;;;5036390;28;20789;-58
2021/04/13 10:46:06;;;;;;;9.50;8.67;;;9.60;90.20;;;;;;5037157;28;20391;-58
2021/04/13 10:48:57;;;;;;;8.70;7.97;;;9.80;90.40;;;;;;5035420;28;20763;-58
2021/04/13 10:52:00;;;;;;;9.30;8.40;;;10.00;89.80;;;;;;5035248;28;20385;-57
2021/04/13 10:54:50;;;;;;;8.50;7.70;;;11.30;86.40;;;;;;5034994;28;20405;-58
2021/04/13 10:57:30;;;;;;;8.77;8.03;;;11.10;80.40;;;;;;5035279;28;20384;-58
2021/04/13 11:00:24;;;;;;;9.20;8.30;;;10.60;80.20;;;;;;5034625;28;20479;-57
2021/04/13 11:03:23;;;;;;;9.27;8.30;;;9.70;84.00;;;;;;5034854;28;20450;-57
2021/04/13 11:06:16;;;;;;;8.57;7.87;;;9.50;85.90;;;;;;5027971;28;20417;-57
2021/04/13 11:09:02;;;;;;;8.90;8.00;;;9.20;85.50;;;;;;5022374;28;20826;-54
2021/04/13 11:11:51;;;;;;;8.20;7.53;;;8.80;86.50;;;;;;5026101;28;20416;-58
2021/04/13 11:14:53;;;;;;;9.47;8.43;;;9.10;86.20;;;;;;5033135;28;20412;-55
2021/04/13 11:17:37;;;;;;;7.43;6.83;;;9.70;84.70;;;;;;5034554;28;20402;-59
2021/04/13 11:20:25;;;;;;;8.83;8.03;;;11.70;80.40;;;;;;5034175;28;20446;-57
2021/04/13 11:23:15;;;;;;;7.63;6.93;;;14.50;71.30;;;;;;5034725;28;20798;-57
2021/04/13 11:26:14;;;;;;;8.20;7.40;;;15.20;63.80;;;;;;5026534;28;20418;-58
2021/04/13 11:29:10;;;;;;;6.07;5.57;;;15.50;61.30;;;;;;5030844;28;20916;-56
2021/04/13 11:31:53;;;;;;;7.13;6.43;;;16.70;53.50;;;;;;5029818;28;20425;-58
2021/04/13 11:34:31;;;;;;;8.43;5.90;;;17.20;50.70;;;;;;5034431;28;20419;-57
2021/04/13 11:37:34;;;;;;;5.53;5.13;;;17.50;50.70;;;;;;5034426;28;20857;-58
2021/04/13 11:40:24;;;;;;;5.93;5.43;;;18.70;47.30;;;;;;5033977;28;20456;-58
2021/04/13 11:42:55;;;;;;;7.00;6.50;;;18.90;44.90;;;;;;5028404;28;20437;-58
2021/04/13 11:45:43;;;;;;;6.17;5.77;;;18.00;44.40;;;;;;5031977;28;20408;-59
2021/04/13 11:48:29;;;;;;;5.90;5.40;;;18.00;45.90;;;;;;5034009;28;20495;-58
2021/04/13 11:51:29;;;;;;;6.00;5.57;;;15.70;46.20;;;;;;5034435;28;20405;-59
2021/04/13 11:53:57;;;;;;;6.63;6.00;;;15.80;46.90;;;;;;5020855;28;20937;-59
2021/04/13 11:56:23;;;;;;;5.20;4.80;;;16.40;44.10;;;;;;5034059;28;20418;-59
2021/04/13 11:59:16;;;;;;;6.47;5.97;;;17.30;43.20;;;;;;5033769;28;20406;-59
2021/04/13 12:01:44;;;;;;;6.37;5.80;;;19.10;41.40;;;;;;5034315;28;20282;-57
2021/04/13 12:04:20;;;;;;;8.27;6.47;;;19.00;42.60;;;;;;5010442;28;20487;-56
2021/04/13 12:06:50;;;;;;;6.87;6.27;;;18.00;43.50;;;;;;5030518;28;20457;-56
2021/04/13 12:09:37;;;;;;;7.97;7.00;;;16.40;49.00;;;;;;5040569;28;20405;-55
2021/04/13 12:12:26;;;;;;;8.70;8.00;;;14.10;52.80;;;;;;5030758;28;20921;-58
2021/04/13 12:14:52;;;;;;;8.27;7.57;;;12.90;56.20;;;;;;5033169;28;20430;-56
2021/04/13 12:17:36;;;;;;;7.80;7.00;;;11.40;59.30;;;;;;5033239;28;20409;-57
2021/04/13 12:20:27;;;;;;;8.30;7.53;;;10.90;61.70;;;;;;5032450;28;20191;-57
2021/04/13 12:23:14;;;;;;;6.30;5.80;;;10.60;63.60;;;;;;5033170;28;20418;-58
2021/04/13 12:25:51;;;;;;;6.90;6.20;;;12.00;60.90;;;;;;5002943;28;20413;-55
2021/04/13 12:28:33;;;;;;;6.20;5.40;;;14.10;53.40;;;;;;5029771;28;20464;-58
2021/04/13 12:31:05;;;;;;;5.93;5.43;;;15.50;48.50;;;;;;5022370;28;20491;-56
2021/04/13 12:33:30;;;;;;;6.33;5.83;;;17.50;47.80;;;;;;5011855;28;20422;-55
2021/04/13 12:36:02;;;;;;;7.80;5.50;;;18.20;45.80;;;;;;5013021;28;20415;-56
2021/04/13 12:38:43;;;;;;;6.67;6.07;;;18.60;45.70;;;;;;5029953;28;20236;-58
2021/04/13 12:41:26;;;;;;;5.03;4.57;;;19.40;43.90;;;;;;5033670;28;20450;-58
2021/04/13 12:44:00;;;;;;;4.23;3.83;;;15.90;42.10;;;;;;5032124;28;20464;-62
2021/04/13 12:46:32;;;;;;;4.27;3.87;;;13.20;43.80;;;;;;5033265;28;20491;-60
2021/04/13 12:49:05;;;;;;;3.90;3.60;;;12.10;45.30;;;;;;5015403;28;20409;-60
2021/04/13 12:51:37;;;;;;;4.00;3.70;;;11.60;47.00;;;;;;5033374;28;20406;-60
2021/04/13 12:54:12;;;;;;;5.03;4.63;;;11.50;48.30;;;;;;5031909;28;20434;-61
2021/04/13 12:56:38;;;;;;;5.90;4.13;;;12.00;47.60;;;;;;5032791;28;20842;-61
2021/04/13 12:59:12;;;;;;;4.47;4.07;;;14.30;45.90;;;;;;5032720;28;20403;-62
2021/04/13 13:01:46;;;;;;;4.23;3.87;;;16.30;44.80;;;;;;5014890;28;20583;-61
2021/04/13 13:04:18;;;;;;;4.60;4.20;;;16.90;42.00;;;;;;5032174;28;20460;-60
2021/04/13 13:07:03;;;;;;;5.57;4.03;;;17.80;41.40;;;;;;5033379;28;20409;-62
2021/04/13 13:09:39;;;;;;;4.23;3.93;;;19.60;40.00;;;;;;5032686;28;20433;-61
2021/04/13 13:12:29;;;;;;;4.77;4.37;;;20.50;38.20;;;;;;5033016;28;20485;-60
2021/04/13 13:15:05;;;;;;;5.10;4.30;;;21.50;38.40;;;;;;5032582;28;20760;-60
2021/04/13 13:17:40;;;;;;;5.30;4.90;;;21.70;37.90;;;;;;5032722;28;20420;-61
2021/04/13 13:20:11;;;;;;;5.00;4.60;;;18.60;40.70;;;;;;5032816;28;20437;-61
2021/04/13 13:22:49;;;;;;;6.40;5.80;;;16.40;43.90;;;;;;5032596;28;20435;-59
2021/04/13 13:25:19;;;;;;;5.63;5.13;;;13.70;49.70;;;;;;5032829;28;20392;-62
2021/04/13 13:27:45;;;;;;;5.70;5.20;;;12.00;54.30;;;;;;5028134;28;20885;-58
2021/04/13 13:30:14;;;;;;;5.53;5.03;;;11.80;56.20;;;;;;5012745;28;20493;-58
2021/04/13 13:32:40;;;;;;;6.47;5.67;;;11.50;56.80;;;;;;5013718;28;20607;-58
2021/04/13 13:35:10;;;;;;;5.63;4.90;;;11.60;58.00;;;;;;5035043;28;20452;-59
2021/04/13 13:37:52;;;;;;;5.27;4.77;;;11.60;58.20;;;;;;5036656;28;20443;-59
2021/04/13 13:40:36;;;;;;;5.50;5.00;;;11.60;59.00;;;;;;5036389;28;20890;-59